createdAt,value
2023-02-25T00:00:00.481Z,5.20
2023-02-25T00:00:23.228Z,5.20
2023-02-25T00:00:46.293Z,5.20
2023-02-25T00:01:10.564Z,5.20
2023-02-25T00:01:33.618Z,5.20
2023-02-25T00:02:03.863Z,5.20
2023-02-25T00:02:27.473Z,5.10
2023-02-25T00:02:53.181Z,5.10
2023-02-25T00:03:19.706Z,5.10
2023-02-25T00:03:44.270Z,5.00
2023-02-25T00:04:07.110Z,5.00
2023-02-25T00:04:30.089Z,5.00
2023-02-25T00:04:53.633Z,5.00
2023-02-25T00:05:18.207Z,5.00
2023-02-25T00:05:41.347Z,5.00
2023-02-25T00:06:04.397Z,5.00
2023-02-25T00:06:27.406Z,5.00
2023-02-25T00:06:51.631Z,5.00
2023-02-25T00:07:14.531Z,5.00
2023-02-25T00:07:37.253Z,5.00
2023-02-25T00:08:00.247Z,5.00
2023-02-25T00:08:22.971Z,5.00
2023-02-25T00:08:46.397Z,5.00
2023-02-25T00:09:11.464Z,5.00
2023-02-25T00:09:34.263Z,5.00
2023-02-25T00:09:57.013Z,5.00
2023-02-25T00:10:20.054Z,5.00
2023-02-25T00:10:43.161Z,5.00
2023-02-25T00:11:06.576Z,5.00
2023-02-25T00:11:30.472Z,5.00
2023-02-25T00:11:53.279Z,5.00
2023-02-25T00:12:16.157Z,5.00
2023-02-25T00:12:39.429Z,5.00
2023-02-25T00:13:17.363Z,5.00
2023-02-25T00:13:41.840Z,5.00
2023-02-25T00:14:04.607Z,5.00
2023-02-25T00:14:27.370Z,4.90
2023-02-25T00:14:50.238Z,5.00
2023-02-25T00:15:13.823Z,5.00
2023-02-25T00:15:36.506Z,5.10
2023-02-25T00:15:59.228Z,5.00
2023-02-25T00:16:22.656Z,5.00
2023-02-25T00:16:45.805Z,5.00
2023-02-25T00:17:08.777Z,5.10
2023-02-25T00:17:31.716Z,5.10
2023-02-25T00:17:54.536Z,5.10
2023-02-25T00:18:17.292Z,5.10
2023-02-25T00:18:44.484Z,5.20
2023-02-25T00:19:07.293Z,5.20
2023-02-25T00:19:29.991Z,5.20
2023-02-25T00:19:52.792Z,5.20
2023-02-25T00:20:15.595Z,5.20
2023-02-25T00:20:41.167Z,5.20
2023-02-25T00:21:05.450Z,5.20
2023-02-25T00:21:29.582Z,5.20
2023-02-25T00:21:53.903Z,5.10
2023-02-25T00:22:16.585Z,5.10
2023-02-25T00:22:42.099Z,5.10
2023-02-25T00:23:04.802Z,5.10
2023-02-25T00:23:28.712Z,5.00
2023-02-25T00:23:51.839Z,5.10
2023-02-25T00:24:16.694Z,5.10
2023-02-25T00:24:39.921Z,5.10
2023-02-25T00:25:02.658Z,5.00
2023-02-25T00:25:25.334Z,5.00
2023-02-25T00:25:49.238Z,5.00
2023-02-25T00:26:11.987Z,5.00
2023-02-25T00:26:34.805Z,4.90
2023-02-25T00:26:57.472Z,4.90
2023-02-25T00:27:20.237Z,5.00
2023-02-25T00:27:42.982Z,4.90
2023-02-25T00:28:05.925Z,4.90
2023-02-25T00:28:28.731Z,4.90
2023-02-25T00:28:51.692Z,5.00
2023-02-25T00:29:14.394Z,5.00
2023-02-25T00:29:37.215Z,5.00
2023-02-25T00:30:00.880Z,4.90
2023-02-25T00:30:23.690Z,5.00
2023-02-25T00:30:46.469Z,5.00
2023-02-25T00:31:10.303Z,5.00
2023-02-25T00:31:33.258Z,5.00
2023-02-25T00:31:56.121Z,5.00
2023-02-25T00:32:19.449Z,4.90
2023-02-25T00:32:42.467Z,4.90
2023-02-25T00:33:08.987Z,4.90
2023-02-25T00:33:31.724Z,4.90
2023-02-25T00:33:55.543Z,4.90
2023-02-25T00:34:18.359Z,4.90
2023-02-25T00:34:41.273Z,4.90
2023-02-25T00:35:04.283Z,4.80
2023-02-25T00:35:27.122Z,4.80
2023-02-25T00:35:52.830Z,4.80
2023-02-25T00:36:20.357Z,4.80
2023-02-25T00:36:43.763Z,4.80
2023-02-25T00:37:08.021Z,4.80
2023-02-25T00:37:30.882Z,4.80
2023-02-25T00:37:55.621Z,4.90
2023-02-25T00:38:20.325Z,4.90
2023-02-25T00:38:43.096Z,4.90
2023-02-25T00:39:05.889Z,4.90
2023-02-25T00:39:43.327Z,4.90
2023-02-25T00:40:14.797Z,4.90
2023-02-25T00:40:38.579Z,4.90
2023-02-25T00:41:09.135Z,4.80
2023-02-25T00:41:31.939Z,4.80
2023-02-25T00:41:54.714Z,4.80
2023-02-25T00:42:18.029Z,4.80
2023-02-25T00:42:41.049Z,4.90
2023-02-25T00:43:03.806Z,4.80
2023-02-25T00:43:26.564Z,4.80
2023-02-25T00:43:50.745Z,4.80
2023-02-25T00:44:13.620Z,4.80
2023-02-25T00:44:37.052Z,4.80
2023-02-25T00:44:59.980Z,4.80
2023-02-25T00:45:22.744Z,4.80
2023-02-25T00:45:45.507Z,4.70
2023-02-25T00:46:09.599Z,4.70
2023-02-25T00:46:32.910Z,4.70
2023-02-25T00:46:55.793Z,4.70
2023-02-25T00:47:19.452Z,4.70
2023-02-25T00:47:42.251Z,4.60
2023-02-25T00:48:05.055Z,4.60
2023-02-25T00:48:27.742Z,4.60
2023-02-25T00:48:50.497Z,4.60
2023-02-25T00:49:21.212Z,4.60
2023-02-25T00:49:53.186Z,4.60
2023-02-25T00:50:18.412Z,4.60
2023-02-25T00:50:41.164Z,4.60
2023-02-25T00:51:09.285Z,4.60
2023-02-25T00:51:32.347Z,4.60
2023-02-25T00:51:58.034Z,4.60
2023-02-25T00:52:24.054Z,4.60
2023-02-25T00:52:46.788Z,4.60
2023-02-25T00:53:12.066Z,4.70
2023-02-25T00:53:34.835Z,4.60
2023-02-25T00:53:57.641Z,4.60
2023-02-25T00:54:20.636Z,4.60
2023-02-25T00:54:43.325Z,4.60
2023-02-25T00:55:07.067Z,4.60
2023-02-25T00:55:33.785Z,4.60
2023-02-25T00:55:59.846Z,4.70
2023-02-25T00:56:23.204Z,4.60
2023-02-25T00:56:46.332Z,4.60
2023-02-25T00:57:09.118Z,4.60
2023-02-25T00:57:31.898Z,4.60
2023-02-25T00:57:54.710Z,4.60
2023-02-25T00:58:17.540Z,4.60
2023-02-25T00:58:40.419Z,4.70
2023-02-25T00:59:03.168Z,4.70
2023-02-25T00:59:25.940Z,4.70
2023-02-25T00:59:48.629Z,4.80
2023-02-25T01:00:18.635Z,4.80
2023-02-25T01:00:51.710Z,4.80
2023-02-25T01:01:20.105Z,4.80
2023-02-25T01:01:42.946Z,4.80
2023-02-25T01:02:05.670Z,4.80
2023-02-25T01:02:28.986Z,4.80
2023-02-25T01:02:51.730Z,4.80
2023-02-25T01:03:14.443Z,4.80
2023-02-25T01:03:37.438Z,4.80
2023-02-25T01:04:00.261Z,4.90
2023-02-25T01:04:23.544Z,4.80
2023-02-25T01:04:46.393Z,4.80
2023-02-25T01:05:09.272Z,4.80
2023-02-25T01:05:32.183Z,4.90
2023-02-25T01:05:55.395Z,4.90
2023-02-25T01:06:18.205Z,4.90
2023-02-25T01:06:41.199Z,4.90
2023-02-25T01:07:05.136Z,4.90
2023-02-25T01:07:29.455Z,4.90
2023-02-25T01:07:52.251Z,4.90
2023-02-25T01:08:15.523Z,5.00
2023-02-25T01:08:38.242Z,4.90
2023-02-25T01:09:00.927Z,4.90
2023-02-25T01:09:23.690Z,4.90
2023-02-25T01:09:46.446Z,4.90
2023-02-25T01:10:11.037Z,4.90
2023-02-25T01:10:36.298Z,4.90
2023-02-25T01:10:59.080Z,5.00
2023-02-25T01:11:27.228Z,5.00
2023-02-25T01:11:50.071Z,5.00
2023-02-25T01:12:12.746Z,5.00
2023-02-25T01:12:38.615Z,5.00
2023-02-25T01:13:01.487Z,5.00
2023-02-25T01:13:24.224Z,5.00
2023-02-25T01:13:47.166Z,5.10
2023-02-25T01:14:12.198Z,5.10
2023-02-25T01:14:34.961Z,5.10
2023-02-25T01:14:57.701Z,5.00
2023-02-25T01:15:20.485Z,5.10
2023-02-25T01:15:43.285Z,5.10
2023-02-25T01:16:11.774Z,5.10
2023-02-25T01:16:35.347Z,5.10
2023-02-25T01:17:02.038Z,5.10
2023-02-25T01:17:24.821Z,5.00
2023-02-25T01:17:47.529Z,5.10
2023-02-25T01:18:10.334Z,5.10
2023-02-25T01:18:33.154Z,5.10
2023-02-25T01:18:56.959Z,5.10
2023-02-25T01:19:20.934Z,5.10
2023-02-25T01:19:46.516Z,5.10
2023-02-25T01:20:13.010Z,5.00
2023-02-25T01:20:38.372Z,5.00
2023-02-25T01:21:01.208Z,5.00
2023-02-25T01:21:28.438Z,5.00
2023-02-25T01:21:52.417Z,5.00
2023-02-25T01:22:15.202Z,5.00
2023-02-25T01:22:42.081Z,5.00
2023-02-25T01:23:04.796Z,5.00
2023-02-25T01:23:27.481Z,5.10
2023-02-25T01:23:50.312Z,5.00
2023-02-25T01:24:13.758Z,5.00
2023-02-25T01:24:36.581Z,5.00
2023-02-25T01:24:59.340Z,5.00
2023-02-25T01:25:22.387Z,5.10
2023-02-25T01:25:45.251Z,5.10
2023-02-25T01:26:07.900Z,5.10
2023-02-25T01:26:32.964Z,5.10
2023-02-25T01:26:57.035Z,5.10
2023-02-25T01:27:19.752Z,5.10
2023-02-25T01:27:42.470Z,5.10
2023-02-25T01:28:06.926Z,5.00
2023-02-25T01:28:29.614Z,5.00
2023-02-25T01:28:52.393Z,5.00
2023-02-25T01:29:16.975Z,4.90
2023-02-25T01:29:40.675Z,4.90
2023-02-25T01:30:03.728Z,4.90
2023-02-25T01:30:26.460Z,4.90
2023-02-25T01:30:49.311Z,4.90
2023-02-25T01:31:17.413Z,4.90
2023-02-25T01:31:40.583Z,4.90
2023-02-25T01:32:04.232Z,4.90
2023-02-25T01:32:27.397Z,4.90
2023-02-25T01:32:52.864Z,4.90
2023-02-25T01:33:15.582Z,5.00
2023-02-25T01:33:38.728Z,5.00
2023-02-25T01:34:02.741Z,4.90
2023-02-25T01:34:25.802Z,5.00
2023-02-25T01:34:48.545Z,5.00
2023-02-25T01:35:11.256Z,5.00
2023-02-25T01:35:36.177Z,5.00
2023-02-25T01:35:59.404Z,5.00
2023-02-25T01:36:22.590Z,5.00
2023-02-25T01:36:46.101Z,5.00
2023-02-25T01:37:08.928Z,5.00
2023-02-25T01:37:32.020Z,5.00
2023-02-25T01:37:56.253Z,5.00
2023-02-25T01:38:19.041Z,5.00
2023-02-25T01:38:41.831Z,5.00
2023-02-25T01:39:04.650Z,5.00
2023-02-25T01:39:27.577Z,5.00
2023-02-25T01:39:51.573Z,5.10
2023-02-25T01:40:18.170Z,5.10
2023-02-25T01:40:41.018Z,5.10
2023-02-25T01:41:04.072Z,5.10
2023-02-25T01:41:27.386Z,5.10
2023-02-25T01:41:53.744Z,5.10
2023-02-25T01:42:16.964Z,5.10
2023-02-25T01:42:39.677Z,5.10
2023-02-25T01:43:02.512Z,5.10
2023-02-25T01:43:25.289Z,5.10
2023-02-25T01:44:06.815Z,5.00
2023-02-25T01:44:30.804Z,5.00
2023-02-25T01:45:32.613Z,5.00
2023-02-25T01:45:55.598Z,5.00
2023-02-25T01:46:18.495Z,5.00
2023-02-25T01:46:42.303Z,5.00
2023-02-25T01:47:05.443Z,5.00
2023-02-25T01:47:28.259Z,5.10
2023-02-25T01:47:52.348Z,5.10
2023-02-25T01:48:16.723Z,5.10
2023-02-25T01:48:40.117Z,5.10
2023-02-25T01:49:03.182Z,5.10
2023-02-25T01:49:30.289Z,5.10
2023-02-25T01:49:53.253Z,5.10
2023-02-25T01:50:16.186Z,5.10
2023-02-25T01:50:42.948Z,5.10
2023-02-25T01:51:09.613Z,5.10
2023-02-25T01:51:32.494Z,5.10
2023-02-25T01:51:56.780Z,5.10
2023-02-25T01:52:23.359Z,5.10
2023-02-25T01:52:46.214Z,5.00
2023-02-25T01:53:10.468Z,5.00
2023-02-25T01:53:35.285Z,5.00
2023-02-25T01:53:58.064Z,5.00
2023-02-25T01:54:20.978Z,5.00
2023-02-25T01:54:45.332Z,5.00
2023-02-25T01:55:09.919Z,5.00
2023-02-25T01:55:32.646Z,5.00
2023-02-25T01:55:55.460Z,5.00
2023-02-25T01:56:20.833Z,5.00
2023-02-25T01:56:48.510Z,5.00
2023-02-25T01:57:14.185Z,5.00
2023-02-25T01:57:37.122Z,5.00
2023-02-25T01:57:59.956Z,5.00
2023-02-25T01:58:25.494Z,5.00
2023-02-25T01:58:48.457Z,5.10
2023-02-25T01:59:11.384Z,5.10
2023-02-25T01:59:34.335Z,5.10
2023-02-25T01:59:57.012Z,5.10
2023-02-25T02:00:20.177Z,5.10
2023-02-25T02:00:43.118Z,5.00
2023-02-25T02:01:07.331Z,5.00
2023-02-25T02:01:31.968Z,5.00
2023-02-25T02:01:54.717Z,5.10
2023-02-25T02:02:19.458Z,5.10
2023-02-25T02:02:42.314Z,5.10
2023-02-25T02:03:05.455Z,5.10
2023-02-25T02:03:30.555Z,5.10
2023-02-25T02:03:53.368Z,5.00
2023-02-25T02:04:16.174Z,5.10
2023-02-25T02:04:39.606Z,5.00
2023-02-25T02:05:06.324Z,5.00
2023-02-25T02:05:38.796Z,5.00
2023-02-25T02:06:05.129Z,5.00
2023-02-25T02:06:30.336Z,5.10
2023-02-25T02:06:53.146Z,5.10
2023-02-25T02:07:16.006Z,5.10
2023-02-25T02:07:38.777Z,5.10
2023-02-25T02:08:01.451Z,5.10
2023-02-25T02:08:26.454Z,5.10
2023-02-25T02:08:49.208Z,5.10
2023-02-25T02:09:13.775Z,5.10
2023-02-25T02:09:36.494Z,5.10
2023-02-25T02:10:00.174Z,5.10
2023-02-25T02:10:23.283Z,5.00
2023-02-25T02:10:46.070Z,5.10
2023-02-25T02:11:08.818Z,5.00
2023-02-25T02:11:31.665Z,5.10
2023-02-25T02:11:56.323Z,5.00
2023-02-25T02:12:19.065Z,5.00
2023-02-25T02:12:44.196Z,5.00
2023-02-25T02:13:06.940Z,5.00
2023-02-25T02:13:29.835Z,5.00
2023-02-25T02:13:54.044Z,4.90
2023-02-25T02:14:18.401Z,4.90
2023-02-25T02:14:41.847Z,4.90
2023-02-25T02:15:06.579Z,4.90
2023-02-25T02:15:29.320Z,4.90
2023-02-25T02:15:59.060Z,5.00
2023-02-25T02:16:40.956Z,5.00
2023-02-25T02:17:14.227Z,5.00
2023-02-25T02:17:38.791Z,5.10
2023-02-25T02:18:01.871Z,5.10
2023-02-25T02:18:24.660Z,5.00
2023-02-25T02:18:49.544Z,5.10
2023-02-25T02:19:22.732Z,5.10
2023-02-25T02:19:59.280Z,5.10
2023-02-25T02:20:23.448Z,5.10
2023-02-25T02:20:52.619Z,5.20
2023-02-25T02:21:24.225Z,5.20
2023-02-25T02:21:54.827Z,5.20
2023-02-25T02:22:18.614Z,5.30
2023-02-25T02:22:56.443Z,5.30
2023-02-25T02:23:46.075Z,5.30
2023-02-25T02:24:49.766Z,5.30
2023-02-25T02:25:26.176Z,5.20
2023-02-25T02:26:14.876Z,5.20
2023-02-25T02:27:02.930Z,5.30
2023-02-25T02:27:26.094Z,5.30
2023-02-25T02:28:14.253Z,5.30
2023-02-25T02:29:09.809Z,5.30
2023-02-25T02:30:23.545Z,5.30
2023-02-25T02:31:05.236Z,5.30
2023-02-25T02:31:39.823Z,5.30
2023-02-25T02:32:09.874Z,5.30
2023-02-25T02:32:35.412Z,5.20
2023-02-25T02:32:59.536Z,5.20
2023-02-25T02:33:24.600Z,5.20
2023-02-25T02:33:51.035Z,5.20
2023-02-25T02:34:20.942Z,5.10
2023-02-25T02:34:48.855Z,5.10
2023-02-25T02:35:15.695Z,5.10
2023-02-25T02:35:42.907Z,5.20
2023-02-25T02:36:07.542Z,5.20
2023-02-25T02:36:34.610Z,5.20
2023-02-25T02:37:04.629Z,5.20
2023-02-25T02:37:33.093Z,5.20
2023-02-25T02:38:00.021Z,5.20
2023-02-25T02:38:26.295Z,5.20
2023-02-25T02:38:51.204Z,5.20
2023-02-25T02:39:15.505Z,5.20
2023-02-25T02:39:45.917Z,5.30
2023-02-25T02:40:19.742Z,5.20
2023-02-25T02:40:47.409Z,5.30
2023-02-25T02:41:13.926Z,5.30
2023-02-25T02:41:37.756Z,5.30
2023-02-25T02:42:01.856Z,5.30
2023-02-25T02:42:29.496Z,5.40
2023-02-25T02:43:00.169Z,5.40
2023-02-25T02:43:29.051Z,5.50
2023-02-25T02:43:52.703Z,5.50
2023-02-25T02:44:17.390Z,5.50
2023-02-25T02:44:43.922Z,5.60
2023-02-25T02:45:12.018Z,5.60
2023-02-25T02:45:39.920Z,5.60
2023-02-25T02:46:07.738Z,5.60
2023-02-25T02:46:34.104Z,5.60
2023-02-25T02:46:59.529Z,5.70
2023-02-25T02:47:23.953Z,5.70
2023-02-25T02:47:49.130Z,5.70
2023-02-25T02:48:13.776Z,5.70
2023-02-25T02:48:37.897Z,5.70
2023-02-25T02:49:03.687Z,5.70
2023-02-25T02:49:28.750Z,5.70
2023-02-25T02:49:53.956Z,5.70
2023-02-25T02:50:19.919Z,5.80
2023-02-25T02:50:44.186Z,5.80
2023-02-25T02:51:11.460Z,5.90
2023-02-25T02:51:36.028Z,5.90
2023-02-25T02:52:00.004Z,6.00
2023-02-25T02:52:24.290Z,6.10
2023-02-25T02:52:50.888Z,6.20
2023-02-25T02:53:14.976Z,6.20
2023-02-25T02:53:39.975Z,6.30
2023-02-25T02:54:03.628Z,6.30
2023-02-25T02:54:26.563Z,6.50
2023-02-25T02:54:52.234Z,6.50
2023-02-25T02:55:22.540Z,6.60
2023-02-25T02:55:46.649Z,6.70
2023-02-25T02:56:09.900Z,6.80
2023-02-25T02:56:34.317Z,6.90
2023-02-25T02:56:57.448Z,6.90
2023-02-25T02:57:20.805Z,7.00
2023-02-25T02:57:43.513Z,7.00
2023-02-25T02:58:08.408Z,7.10
2023-02-25T02:58:32.639Z,7.20
2023-02-25T02:58:58.036Z,7.20
2023-02-25T02:59:22.953Z,7.20
2023-02-25T02:59:47.489Z,7.20
2023-02-25T03:00:18.092Z,7.20
2023-02-25T03:00:43.019Z,7.30
2023-02-25T03:01:09.484Z,7.30
2023-02-25T03:01:34.197Z,7.30
2023-02-25T03:01:59.034Z,7.30
2023-02-25T03:02:22.889Z,7.30
2023-02-25T03:02:46.723Z,7.30
2023-02-25T03:03:12.755Z,7.30
2023-02-25T03:03:38.485Z,7.30
2023-02-25T03:04:03.702Z,7.30
2023-02-25T03:04:29.207Z,7.30
2023-02-25T03:04:54.462Z,7.20
2023-02-25T03:05:17.403Z,7.20
2023-02-25T03:05:40.556Z,7.20
2023-02-25T03:06:05.118Z,7.20
2023-02-25T03:06:30.910Z,7.20
2023-02-25T03:06:55.703Z,7.20
2023-02-25T03:07:18.422Z,7.20
2023-02-25T03:07:43.444Z,7.20
2023-02-25T03:08:08.006Z,7.20
2023-02-25T03:08:31.998Z,7.20
2023-02-25T03:08:57.002Z,7.20
2023-02-25T03:09:21.789Z,7.20
2023-02-25T03:09:47.345Z,7.10
2023-02-25T03:10:12.343Z,7.20
2023-02-25T03:10:35.036Z,7.20
2023-02-25T03:10:57.767Z,7.20
2023-02-25T03:11:20.798Z,7.10
2023-02-25T03:11:43.788Z,7.10
2023-02-25T03:12:06.868Z,7.10
2023-02-25T03:12:30.257Z,7.10
2023-02-25T03:12:53.015Z,7.10
2023-02-25T03:13:15.761Z,7.10
2023-02-25T03:13:38.483Z,7.10
2023-02-25T03:14:01.284Z,7.10
2023-02-25T03:14:24.118Z,7.10
2023-02-25T03:14:46.893Z,7.10
2023-02-25T03:15:10.612Z,7.10
2023-02-25T03:15:33.422Z,7.10
2023-02-25T03:15:59.874Z,7.10
2023-02-25T03:16:26.281Z,7.10
2023-02-25T03:16:51.413Z,7.10
2023-02-25T03:17:15.926Z,7.10
2023-02-25T03:17:41.723Z,7.10
2023-02-25T03:18:05.915Z,7.10
2023-02-25T03:18:32.098Z,7.10
2023-02-25T03:18:56.319Z,7.10
2023-02-25T03:19:20.697Z,7.10
2023-02-25T03:19:45.294Z,7.10
2023-02-25T03:20:10.606Z,7.10
2023-02-25T03:20:36.460Z,7.10
2023-02-25T03:20:59.224Z,7.10
2023-02-25T03:21:26.085Z,7.10
2023-02-25T03:21:50.074Z,7.10
2023-02-25T03:22:13.752Z,7.10
2023-02-25T03:22:39.537Z,7.10
2023-02-25T03:23:04.364Z,7.10
2023-02-25T03:23:28.959Z,7.10
2023-02-25T03:23:51.757Z,7.10
2023-02-25T03:24:22.412Z,7.10
2023-02-25T03:24:49.289Z,7.10
2023-02-25T03:25:14.885Z,7.20
2023-02-25T03:25:47.863Z,7.20
2023-02-25T03:26:12.835Z,7.20
2023-02-25T03:26:36.679Z,7.20
2023-02-25T03:26:59.366Z,7.20
2023-02-25T03:27:25.464Z,7.20
2023-02-25T03:27:48.816Z,7.20
2023-02-25T03:28:18.401Z,7.20
2023-02-25T03:28:41.355Z,7.20
2023-02-25T03:29:04.158Z,7.20
2023-02-25T03:29:28.839Z,7.20
2023-02-25T03:29:51.619Z,7.20
2023-02-25T03:30:17.603Z,7.20
2023-02-25T03:30:41.201Z,7.10
2023-02-25T03:31:09.334Z,7.10
2023-02-25T03:31:35.406Z,7.20
2023-02-25T03:31:59.646Z,7.20
2023-02-25T03:32:22.701Z,7.20
2023-02-25T03:32:47.757Z,7.20
2023-02-25T03:33:14.412Z,7.20
2023-02-25T03:33:39.880Z,7.20
2023-02-25T03:34:06.415Z,7.20
2023-02-25T03:34:30.829Z,7.20
2023-02-25T03:34:57.777Z,7.20
2023-02-25T03:35:21.015Z,7.20
2023-02-25T03:35:43.751Z,7.20
2023-02-25T03:36:11.555Z,7.20
2023-02-25T03:36:35.250Z,7.20
2023-02-25T03:36:58.951Z,7.20
2023-02-25T03:37:22.595Z,7.20
2023-02-25T03:37:45.929Z,7.20
2023-02-25T03:38:10.236Z,7.20
2023-02-25T03:38:33.466Z,7.20
2023-02-25T03:38:58.001Z,7.20
2023-02-25T03:39:22.652Z,7.20
2023-02-25T03:39:47.535Z,7.20
2023-02-25T03:40:12.061Z,7.20
2023-02-25T03:40:34.791Z,7.20
2023-02-25T03:40:57.676Z,7.20
2023-02-25T03:41:20.527Z,7.20
2023-02-25T03:41:44.981Z,7.20
2023-02-25T03:42:12.033Z,7.20
2023-02-25T03:42:35.827Z,7.20
2023-02-25T03:43:01.283Z,7.20
2023-02-25T03:43:26.416Z,7.20
2023-02-25T03:43:50.802Z,7.20
2023-02-25T03:44:15.121Z,7.20
2023-02-25T03:44:42.550Z,7.20
2023-02-25T03:45:07.284Z,7.20
2023-02-25T03:45:30.133Z,7.20
2023-02-25T03:45:52.927Z,7.20
2023-02-25T03:46:15.699Z,7.20
2023-02-25T03:46:39.948Z,7.20
2023-02-25T03:47:02.913Z,7.10
2023-02-25T03:47:25.744Z,7.20
2023-02-25T03:47:48.728Z,7.20
2023-02-25T03:48:12.073Z,7.20
2023-02-25T03:48:35.382Z,7.20
2023-02-25T03:48:58.114Z,7.20
2023-02-25T03:49:23.546Z,7.20
2023-02-25T03:49:48.696Z,7.20
2023-02-25T03:50:13.386Z,7.20
2023-02-25T03:50:37.792Z,7.20
2023-02-25T03:51:01.809Z,7.20
2023-02-25T03:51:27.402Z,7.20
2023-02-25T03:51:50.163Z,7.10
2023-02-25T03:52:15.413Z,7.20
2023-02-25T03:52:39.916Z,7.20
2023-02-25T03:53:03.272Z,7.20
2023-02-25T03:53:26.203Z,7.20
2023-02-25T03:53:50.316Z,7.20
2023-02-25T03:54:16.756Z,7.20
2023-02-25T03:54:39.553Z,7.20
2023-02-25T03:55:02.259Z,7.20
2023-02-25T03:55:25.085Z,7.30
2023-02-25T03:55:47.758Z,7.30
2023-02-25T03:56:11.303Z,7.30
2023-02-25T03:56:41.825Z,7.30
2023-02-25T03:57:04.568Z,7.40
2023-02-25T03:57:35.254Z,7.40
2023-02-25T03:57:57.982Z,7.40
2023-02-25T03:58:20.702Z,7.50
2023-02-25T03:58:43.429Z,7.50
2023-02-25T03:59:06.137Z,7.50
2023-02-25T03:59:29.132Z,7.50
2023-02-25T03:59:53.276Z,7.50
2023-02-25T04:00:19.400Z,7.50
2023-02-25T04:00:42.353Z,7.50
2023-02-25T04:01:06.606Z,7.50
2023-02-25T04:01:29.847Z,7.50
2023-02-25T04:01:54.078Z,7.60
2023-02-25T04:02:17.337Z,7.60
2023-02-25T04:02:40.579Z,7.60
2023-02-25T04:03:03.649Z,7.70
2023-02-25T04:03:26.402Z,7.70
2023-02-25T04:03:49.291Z,7.60
2023-02-25T04:04:12.106Z,7.70
2023-02-25T04:04:34.933Z,7.70
2023-02-25T04:04:58.213Z,7.70
2023-02-25T04:05:21.984Z,7.70
2023-02-25T04:05:44.836Z,7.70
2023-02-25T04:06:07.598Z,7.70
2023-02-25T04:06:30.386Z,7.70
2023-02-25T04:06:53.149Z,7.70
2023-02-25T04:07:17.996Z,7.70
2023-02-25T04:07:40.823Z,7.70
2023-02-25T04:08:03.611Z,7.70
2023-02-25T04:08:26.374Z,7.70
2023-02-25T04:08:49.290Z,7.70
2023-02-25T04:09:12.898Z,7.70
2023-02-25T04:09:35.565Z,7.70
2023-02-25T04:09:58.339Z,7.70
2023-02-25T04:10:21.296Z,7.70
2023-02-25T04:10:44.263Z,7.70
2023-02-25T04:11:07.109Z,7.70
2023-02-25T04:11:29.945Z,7.70
2023-02-25T04:11:57.212Z,7.70
2023-02-25T04:12:19.983Z,7.70
2023-02-25T04:12:42.694Z,7.70
2023-02-25T04:13:07.699Z,7.70
2023-02-25T04:13:30.434Z,7.70
2023-02-25T04:13:53.156Z,7.70
2023-02-25T04:14:16.194Z,7.70
2023-02-25T04:14:38.898Z,7.70
2023-02-25T04:15:01.615Z,7.70
2023-02-25T04:15:27.722Z,7.70
2023-02-25T04:15:50.629Z,7.70
2023-02-25T04:16:14.575Z,7.70
2023-02-25T04:16:37.298Z,7.70
2023-02-25T04:17:02.310Z,7.70
2023-02-25T04:17:25.154Z,7.80
2023-02-25T04:17:47.912Z,7.80
2023-02-25T04:18:10.759Z,7.80
2023-02-25T04:18:33.449Z,7.80
2023-02-25T04:18:56.208Z,7.80
2023-02-25T04:19:22.102Z,7.80
2023-02-25T04:19:45.052Z,7.80
2023-02-25T04:20:09.418Z,7.80
2023-02-25T04:20:33.149Z,7.80
2023-02-25T04:20:55.920Z,7.80
2023-02-25T04:21:27.108Z,7.80
2023-02-25T04:21:49.832Z,7.80
2023-02-25T04:22:15.079Z,7.80
2023-02-25T04:22:37.823Z,7.90
2023-02-25T04:23:00.665Z,7.80
2023-02-25T04:23:25.636Z,7.90
2023-02-25T04:23:48.362Z,7.90
2023-02-25T04:24:11.055Z,7.90
2023-02-25T04:24:33.873Z,7.90
2023-02-25T04:24:56.630Z,7.90
2023-02-25T04:25:19.540Z,7.90
2023-02-25T04:25:42.402Z,8.00
2023-02-25T04:26:05.345Z,7.90
2023-02-25T04:26:28.030Z,7.90
2023-02-25T04:26:58.641Z,8.00
2023-02-25T04:27:21.463Z,8.00
2023-02-25T04:27:44.359Z,8.00
2023-02-25T04:28:08.098Z,8.00
2023-02-25T04:28:30.858Z,8.00
2023-02-25T04:28:53.746Z,8.00
2023-02-25T04:29:18.779Z,8.00
2023-02-25T04:29:41.533Z,8.00
2023-02-25T04:30:07.290Z,8.00
2023-02-25T04:30:30.798Z,8.00
2023-02-25T04:30:54.264Z,8.00
2023-02-25T04:31:19.634Z,8.00
2023-02-25T04:31:42.834Z,8.00
2023-02-25T04:32:07.290Z,8.00
2023-02-25T04:32:31.392Z,8.00
2023-02-25T04:32:56.497Z,8.00
2023-02-25T04:33:19.232Z,8.00
2023-02-25T04:33:44.245Z,8.00
2023-02-25T04:34:07.234Z,8.00
2023-02-25T04:34:29.944Z,8.10
2023-02-25T04:34:55.169Z,8.10
2023-02-25T04:35:17.976Z,8.10
2023-02-25T04:35:42.900Z,8.10
2023-02-25T04:36:09.147Z,8.10
2023-02-25T04:36:33.314Z,8.10
2023-02-25T04:36:58.209Z,8.10
2023-02-25T04:37:20.904Z,8.10
2023-02-25T04:37:43.913Z,8.10
2023-02-25T04:38:09.019Z,8.10
2023-02-25T04:38:34.358Z,8.10
2023-02-25T04:38:57.222Z,8.10
2023-02-25T04:39:20.070Z,8.10
2023-02-25T04:39:42.916Z,8.10
2023-02-25T04:40:12.404Z,8.10
2023-02-25T04:40:35.077Z,8.10
2023-02-25T04:40:57.939Z,8.10
2023-02-25T04:41:22.965Z,8.10
2023-02-25T04:41:46.282Z,8.10
2023-02-25T04:42:09.103Z,8.10
2023-02-25T04:42:34.401Z,8.20
2023-02-25T04:42:57.138Z,8.20
2023-02-25T04:43:19.888Z,8.20
2023-02-25T04:43:45.553Z,8.20
2023-02-25T04:44:08.335Z,8.20
2023-02-25T04:44:31.225Z,8.20
2023-02-25T04:44:56.500Z,8.20
2023-02-25T04:45:22.368Z,8.20
2023-02-25T04:45:45.303Z,8.20
2023-02-25T04:46:08.033Z,8.10
2023-02-25T04:46:30.984Z,8.10
2023-02-25T04:46:53.931Z,8.20
2023-02-25T04:47:19.312Z,8.20
2023-02-25T04:47:42.107Z,8.20
2023-02-25T04:48:05.962Z,8.20
2023-02-25T04:48:28.654Z,8.20
2023-02-25T04:48:53.561Z,8.20
2023-02-25T04:49:16.341Z,8.20
2023-02-25T04:49:45.236Z,8.20
2023-02-25T04:50:09.601Z,8.30
2023-02-25T04:50:32.408Z,8.30
2023-02-25T04:50:58.186Z,8.30
2023-02-25T04:51:21.496Z,8.30
2023-02-25T04:51:44.250Z,8.30
2023-02-25T04:52:07.946Z,8.40
2023-02-25T04:52:30.686Z,8.40
2023-02-25T04:52:55.587Z,8.30
2023-02-25T04:53:18.294Z,8.40
2023-02-25T04:53:43.531Z,8.30
2023-02-25T04:54:06.335Z,8.30
2023-02-25T04:54:31.936Z,8.30
2023-02-25T04:54:54.651Z,8.30
2023-02-25T04:55:18.251Z,8.30
2023-02-25T04:55:43.871Z,8.30
2023-02-25T04:56:07.094Z,8.40
2023-02-25T04:56:29.782Z,8.30
2023-02-25T04:56:52.499Z,8.30
2023-02-25T04:57:15.386Z,8.30
2023-02-25T04:57:42.678Z,8.30
2023-02-25T04:58:05.715Z,8.30
2023-02-25T04:58:31.446Z,8.30
2023-02-25T04:58:56.516Z,8.30
2023-02-25T04:59:19.279Z,8.30
2023-02-25T04:59:44.511Z,8.30
2023-02-25T05:00:10.129Z,8.30
2023-02-25T05:00:33.124Z,8.30
2023-02-25T05:00:58.069Z,8.30
2023-02-25T05:01:20.910Z,8.30
2023-02-25T05:01:43.675Z,8.30
2023-02-25T05:02:09.569Z,8.30
2023-02-25T05:02:34.797Z,8.20
2023-02-25T05:02:59.715Z,8.20
2023-02-25T05:03:25.677Z,8.30
2023-02-25T05:03:50.812Z,8.20
2023-02-25T05:04:13.616Z,8.20
2023-02-25T05:04:38.558Z,8.20
2023-02-25T05:05:01.336Z,8.20
2023-02-25T05:05:26.495Z,8.20
2023-02-25T05:05:49.242Z,8.20
2023-02-25T05:06:14.348Z,8.20
2023-02-25T05:06:39.283Z,8.20
2023-02-25T05:07:02.022Z,8.20
2023-02-25T05:07:27.927Z,8.20
2023-02-25T05:07:50.676Z,8.20
2023-02-25T05:08:13.502Z,8.20
2023-02-25T05:08:38.547Z,8.10
2023-02-25T05:09:03.874Z,8.20
2023-02-25T05:09:26.586Z,8.10
2023-02-25T05:09:51.667Z,8.10
2023-02-25T05:10:15.262Z,8.10
2023-02-25T05:10:40.204Z,8.10
2023-02-25T05:11:03.148Z,8.10
2023-02-25T05:11:26.226Z,8.10
2023-02-25T05:11:51.216Z,8.10
2023-02-25T05:12:13.936Z,8.10
2023-02-25T05:12:39.109Z,8.00
2023-02-25T05:13:02.294Z,8.00
2023-02-25T05:13:25.027Z,8.00
2023-02-25T05:13:50.041Z,8.00
2023-02-25T05:14:15.255Z,8.00
2023-02-25T05:14:38.165Z,8.00
2023-02-25T05:15:04.096Z,8.00
2023-02-25T05:15:27.062Z,8.00
2023-02-25T05:15:50.019Z,8.00
2023-02-25T05:16:16.575Z,8.00
2023-02-25T05:16:39.417Z,7.90
2023-02-25T05:17:04.847Z,7.90
2023-02-25T05:17:27.597Z,7.90
2023-02-25T05:17:52.540Z,7.90
2023-02-25T05:18:15.391Z,7.90
2023-02-25T05:18:38.856Z,7.90
2023-02-25T05:19:01.602Z,7.90
2023-02-25T05:19:26.542Z,7.90
2023-02-25T05:19:49.318Z,7.90
2023-02-25T05:20:15.633Z,7.80
2023-02-25T05:20:41.282Z,7.80
2023-02-25T05:21:04.569Z,7.90
2023-02-25T05:21:29.543Z,7.80
2023-02-25T05:21:52.669Z,7.80
2023-02-25T05:22:17.839Z,7.80
2023-02-25T05:22:43.080Z,7.80
2023-02-25T05:23:05.725Z,7.80
2023-02-25T05:23:28.514Z,7.80
2023-02-25T05:23:52.227Z,7.80
2023-02-25T05:24:14.888Z,7.80
2023-02-25T05:24:39.789Z,7.70
2023-02-25T05:25:08.584Z,7.80
2023-02-25T05:25:33.967Z,7.70
2023-02-25T05:25:58.912Z,7.70
2023-02-25T05:26:23.605Z,7.70
2023-02-25T05:26:46.592Z,7.70
2023-02-25T05:27:12.346Z,7.70
2023-02-25T05:27:35.399Z,7.70
2023-02-25T05:28:03.188Z,7.70
2023-02-25T05:28:26.049Z,7.70